createdAt,value
2022-09-26T00:11:00.935Z,10.90
2022-09-26T00:14:08.044Z,10.60
2022-09-26T00:17:14.355Z,10.32
2022-09-26T00:19:45.445Z,10.77
2022-09-26T00:22:36.435Z,10.88
2022-09-26T00:25:28.567Z,10.57
2022-09-26T00:50:54.178Z,10.13
2022-09-26T00:56:56.887Z,11.10
2022-09-26T00:59:34.248Z,11.23
2022-09-26T01:02:28.927Z,11.48
2022-09-26T01:05:01.874Z,11.52
2022-09-26T01:07:36.685Z,10.55
2022-09-26T01:10:09.890Z,10.13
2022-09-26T01:13:05.258Z,10.52
2022-09-26T01:15:59.189Z,10.90
2022-09-26T01:34:16.739Z,11.68
2022-09-26T01:37:33.476Z,11.57
2022-09-26T01:40:33.366Z,11.65
2022-09-26T01:43:16.201Z,11.20
2022-09-26T01:45:47.274Z,12.02
2022-09-26T01:48:42.173Z,11.63
2022-09-26T01:51:39.714Z,12.30
2022-09-26T01:54:23.018Z,11.70
2022-09-26T01:56:57.024Z,12.60
2022-09-26T01:59:35.646Z,12.00
2022-09-26T02:02:16.475Z,12.32
2022-09-26T02:04:55.076Z,12.52
2022-09-26T02:07:57.336Z,12.55
2022-09-26T02:10:36.797Z,13.90
2022-09-26T02:16:07.116Z,12.63
2022-09-26T02:18:49.676Z,12.30
2022-09-26T02:21:42.601Z,13.18
2022-09-26T02:24:54.765Z,13.98
2022-09-26T02:27:46.985Z,13.95
2022-09-26T02:43:04.811Z,13.32
2022-09-26T02:45:47.740Z,12.77
2022-09-26T02:49:04.037Z,13.57
2022-09-26T02:51:46.443Z,13.98
2022-09-26T02:54:35.895Z,14.15
2022-09-26T02:57:17.411Z,13.75
2022-09-26T03:00:15.235Z,13.57
2022-09-26T03:03:27.361Z,13.40
2022-09-26T03:06:20.371Z,14.13
2022-09-26T03:09:22.882Z,14.18
2022-09-26T03:12:19.149Z,13.68
2022-09-26T03:27:28.869Z,13.55
2022-09-26T03:30:02.169Z,14.45
2022-09-26T03:32:36.717Z,13.52
2022-09-26T03:35:28.159Z,13.20
2022-09-26T03:38:40.000Z,13.13
2022-09-26T03:59:48.604Z,13.02
2022-09-26T04:03:06.969Z,12.38
2022-09-26T04:05:44.813Z,13.50
2022-09-26T04:08:15.786Z,14.32
2022-09-26T04:10:47.116Z,13.75
2022-09-26T04:13:51.261Z,14.18
2022-09-26T04:34:20.466Z,13.93
2022-09-26T04:36:55.543Z,13.73
2022-09-26T04:39:46.612Z,13.68
2022-09-26T04:42:42.932Z,14.30
2022-09-26T04:55:26.202Z,13.32
2022-09-26T04:59:00.972Z,12.43
2022-09-26T05:12:41.245Z,13.35
2022-09-26T05:18:53.145Z,13.27
2022-09-26T05:34:30.020Z,13.93
2022-09-26T05:37:41.552Z,12.77
2022-09-26T05:41:13.596Z,14.13
2022-09-26T05:44:05.163Z,14.25
2022-09-26T05:59:53.968Z,13.40
2022-09-26T06:02:49.042Z,12.93
2022-09-26T06:08:59.232Z,12.90
2022-09-26T06:12:11.399Z,13.38
2022-09-26T06:15:14.575Z,13.30
2022-09-26T06:31:17.877Z,13.48
2022-09-26T06:34:46.862Z,12.98
2022-09-26T06:38:23.392Z,12.95
2022-09-26T06:41:18.126Z,13.85
2022-09-26T06:51:11.281Z,13.60
2022-09-26T06:53:44.054Z,12.90
2022-09-26T06:56:16.661Z,12.75
2022-09-26T06:58:48.153Z,13.15
2022-09-26T07:01:59.998Z,13.23
2022-09-26T07:05:09.171Z,12.80
2022-09-26T07:24:52.161Z,11.93
2022-09-26T07:27:55.201Z,12.60
2022-09-26T07:31:02.852Z,13.27
2022-09-26T07:47:14.431Z,12.40
2022-09-26T07:50:29.254Z,12.60
2022-09-26T07:53:53.123Z,13.15
2022-09-26T08:10:27.596Z,12.50
2022-09-26T08:13:56.896Z,12.27
2022-09-26T08:16:48.683Z,12.85
2022-09-26T08:29:50.202Z,11.88
2022-09-26T08:33:43.548Z,12.70
2022-09-26T08:47:09.759Z,11.70
2022-09-26T08:53:42.570Z,12.13
2022-09-26T08:56:56.182Z,12.70
2022-09-26T09:00:03.692Z,12.65
2022-09-26T09:03:17.338Z,13.52
2022-09-26T09:12:43.697Z,12.95
2022-09-26T09:16:19.643Z,11.60
2022-09-26T09:19:20.609Z,11.73
2022-09-26T09:22:08.073Z,12.13
2022-09-26T09:27:52.442Z,11.98
2022-09-26T09:29:21.082Z,11.77
2022-09-26T09:32:46.067Z,12.32
2022-09-26T09:35:57.193Z,12.57
2022-09-26T09:39:01.776Z,11.63
2022-09-26T09:49:11.510Z,12.70
2022-09-26T09:52:28.153Z,12.70
2022-09-26T09:55:28.675Z,11.38
2022-09-26T10:12:02.093Z,11.60
2022-09-26T10:15:48.737Z,12.35
2022-09-26T10:19:02.997Z,12.15
2022-09-26T10:21:56.537Z,11.73
2022-09-26T10:40:41.721Z,12.77
2022-09-26T10:43:27.180Z,12.18
2022-09-26T10:46:25.313Z,12.45
2022-09-26T10:49:41.408Z,12.40
2022-09-26T10:52:50.621Z,12.13
2022-09-26T11:05:37.910Z,13.02
2022-09-26T11:09:21.775Z,12.95
2022-09-26T11:13:02.125Z,12.18
2022-09-26T11:16:00.102Z,13.32
2022-09-26T11:18:53.808Z,13.23
2022-09-26T11:21:50.097Z,12.00
2022-09-26T11:35:27.700Z,12.73
2022-09-26T11:38:12.582Z,13.10
2022-09-26T11:41:39.722Z,12.07
2022-09-26T11:44:38.694Z,12.35
2022-09-26T11:47:47.911Z,12.43
2022-09-26T11:50:55.108Z,11.27
2022-09-26T11:54:23.046Z,12.65
2022-09-26T11:57:23.855Z,12.90
2022-09-26T12:25:09.379Z,13.00
2022-09-26T12:28:01.673Z,12.60
2022-09-26T12:31:30.726Z,13.02
2022-09-26T12:35:03.193Z,12.88
2022-09-26T12:37:46.243Z,12.60
2022-09-26T12:44:45.450Z,12.45
2022-09-26T13:03:34.473Z,12.88
2022-09-26T13:06:34.037Z,13.40
2022-09-26T13:09:48.916Z,12.70
2022-09-26T13:12:40.403Z,12.55
2022-09-26T13:15:57.949Z,13.73
2022-09-26T13:19:02.159Z,12.68
2022-09-26T13:21:49.488Z,12.80
2022-09-26T13:24:30.071Z,13.57
2022-09-26T13:27:37.670Z,12.85
2022-09-26T13:30:37.763Z,13.63
2022-09-26T13:33:27.755Z,14.63
2022-09-26T13:36:02.247Z,15.02
2022-09-26T13:41:38.945Z,13.95
2022-09-26T13:44:39.166Z,15.18
2022-09-26T13:47:26.189Z,16.30
2022-09-26T13:50:44.904Z,17.80
2022-09-26T13:54:05.840Z,17.88
2022-09-26T13:56:37.721Z,16.48
2022-09-26T13:59:19.640Z,19.65
2022-09-26T14:02:29.773Z,15.68
2022-09-26T14:05:25.408Z,16.08
2022-09-26T14:21:34.399Z,15.47
2022-09-26T14:24:37.291Z,15.73
2022-09-26T14:27:39.671Z,14.75
2022-09-26T14:30:33.833Z,16.50
2022-09-26T14:33:31.193Z,16.15
2022-09-26T14:36:33.761Z,15.20
2022-09-26T14:39:06.594Z,14.93
2022-09-26T14:41:38.853Z,14.55
2022-09-26T14:44:37.085Z,14.93
2022-09-26T14:47:58.752Z,15.57
2022-09-26T15:08:31.250Z,16.17
2022-09-26T15:11:03.577Z,15.05
2022-09-26T15:13:44.520Z,15.98
2022-09-26T15:16:57.461Z,15.27
2022-09-26T15:19:56.472Z,14.95
2022-09-26T15:22:31.383Z,14.90
2022-09-26T15:25:20.740Z,16.23
2022-09-26T15:27:57.814Z,14.95
2022-09-26T15:30:55.341Z,15.23
2022-09-26T15:33:46.563Z,14.10
2022-09-26T15:36:41.273Z,14.82
2022-09-26T16:33:41.882Z,13.73
2022-09-26T16:36:36.714Z,13.98
2022-09-26T16:39:18.780Z,14.43
2022-09-26T16:42:19.378Z,13.32
2022-09-26T16:44:58.981Z,13.93
2022-09-26T16:47:49.247Z,14.30
2022-09-26T16:50:35.603Z,13.68
2022-09-26T16:53:27.411Z,14.77
2022-09-26T16:55:59.773Z,13.93
2022-09-26T16:58:59.392Z,14.23
2022-09-26T17:01:49.056Z,14.50
2022-09-26T17:04:33.546Z,14.90
2022-09-26T17:30:23.471Z,13.63
2022-09-26T17:33:15.663Z,14.52
2022-09-26T17:36:12.062Z,13.82
2022-09-26T17:38:44.765Z,14.70
2022-09-26T17:41:15.891Z,14.55
2022-09-26T17:44:06.926Z,14.05
2022-09-26T17:46:39.781Z,14.45
2022-09-26T17:49:19.655Z,14.98
2022-09-26T17:51:50.590Z,14.30
2022-09-26T17:54:23.042Z,13.98
2022-09-26T17:57:41.734Z,14.80
2022-09-26T18:00:18.032Z,15.38
2022-09-26T18:03:02.763Z,14.68
2022-09-26T18:11:26.142Z,13.10
2022-09-26T18:13:58.378Z,12.77
2022-09-26T18:22:26.432Z,14.43
2022-09-26T18:25:27.110Z,14.75
2022-09-26T18:27:59.207Z,14.73
2022-09-26T18:30:30.832Z,14.85
2022-09-26T19:12:51.930Z,13.93
2022-09-26T19:16:01.214Z,13.98
2022-09-26T19:18:32.348Z,14.45
2022-09-26T19:21:35.500Z,13.10
2022-09-26T19:24:56.677Z,12.33
2022-09-26T19:27:48.225Z,14.65
2022-09-26T19:30:22.351Z,13.52
2022-09-26T19:32:55.179Z,13.93
2022-09-26T19:35:31.819Z,13.83
2022-09-26T19:38:28.161Z,13.30
2022-09-26T19:41:00.991Z,14.23
2022-09-26T19:43:33.044Z,13.57
2022-09-26T19:46:26.995Z,12.98
2022-09-26T19:48:58.403Z,13.27
2022-09-26T19:51:30.768Z,13.32
2022-09-26T19:54:06.093Z,13.65
2022-09-26T19:56:37.562Z,13.23
2022-09-26T19:59:08.507Z,13.00
2022-09-26T20:01:40.091Z,12.75
2022-09-26T20:04:31.393Z,14.05
2022-09-26T20:07:02.486Z,13.30
2022-09-26T20:09:56.319Z,13.80
2022-09-26T20:12:50.177Z,13.77
2022-09-26T20:15:22.168Z,13.70
2022-09-26T20:17:55.099Z,14.07
2022-09-26T20:20:54.835Z,13.55
2022-09-26T20:23:29.113Z,12.85
2022-09-26T20:26:01.106Z,13.32
2022-09-26T20:28:32.827Z,13.18
2022-09-26T20:31:25.537Z,13.23
2022-09-26T21:41:00.011Z,14.10
2022-09-26T21:43:39.673Z,14.15
2022-09-26T21:46:31.658Z,13.98
2022-09-26T21:49:22.867Z,13.38
2022-09-26T21:52:05.255Z,14.00
2022-09-26T21:54:42.606Z,13.18
2022-09-26T21:57:20.963Z,13.15
2022-09-26T22:00:14.219Z,13.65
2022-09-26T22:03:05.330Z,13.03
2022-09-26T22:08:44.110Z,13.65
2022-09-26T23:18:14.669Z,14.38
2022-09-26T23:20:46.325Z,13.18
2022-09-26T23:23:17.716Z,14.07
2022-09-26T23:25:50.669Z,14.20
2022-09-26T23:28:47.476Z,13.20
2022-09-26T23:31:42.399Z,14.50
2022-09-26T23:34:13.463Z,13.20
2022-09-26T23:37:10.644Z,14.20
2022-09-26T23:40:27.474Z,13.55
2022-09-26T23:43:00.464Z,13.68
2022-09-26T23:57:18.354Z,13.65
2022-09-26T23:59:49.386Z,13.40
